Terminal Aerodrome Forecast
Issued by NWS

Home | Current Version | Previous Version | Graphics & Text | Print | Product List | Glossary On
Versions: 1 2 3 4 5 6 7 8 9 10 11 12 13 14
000
FTUS43 KICT 160500
TAFRSL
TAF
KRSL 160522Z 1606/1706 17017G25KT P6SM BKN250
     FM161500 24016G24KT P6SM BKN250
     FM161800 34017G27KT P6SM BKN250
     FM170100 02013KT P6SM OVC200=

USA.gov is the U.S. government's official web portal to all federal, state and local government web resources and services.